createdAt,value
2023-05-19T00:04:24.673Z,69
2023-05-19T00:09:22.345Z,70
2023-05-19T00:14:22.219Z,70
2023-05-19T00:19:21.557Z,70
2023-05-19T00:24:20.939Z,71
2023-05-19T00:29:20.077Z,71
2023-05-19T00:34:19.705Z,71
2023-05-19T00:39:20.160Z,72
2023-05-19T00:44:19.438Z,73
2023-05-19T00:49:20.611Z,74
2023-05-19T00:54:16.838Z,76
2023-05-19T00:59:14.177Z,77
2023-05-19T01:04:14.390Z,78
2023-05-19T01:09:13.075Z,78
2023-05-19T01:14:13.452Z,79
2023-05-19T01:29:12.115Z,79
2023-05-19T01:34:12.599Z,79
2023-05-19T01:39:01.191Z,79
2023-05-19T01:44:00.799Z,79
2023-05-19T01:49:00.847Z,78
2023-05-19T01:54:00.201Z,78
2023-05-19T01:59:01.229Z,78
2023-05-19T02:03:57.639Z,78
2023-05-19T02:08:57.678Z,79
2023-05-19T02:13:56.808Z,80
2023-05-19T02:18:57.061Z,80
2023-05-19T02:23:54.082Z,81
2023-05-19T02:28:53.640Z,81
2023-05-19T02:33:54.300Z,82
2023-05-19T02:38:54.035Z,82
2023-05-19T02:43:53.183Z,82
2023-05-19T02:48:52.784Z,82
2023-05-19T02:53:53.047Z,83
2023-05-19T02:58:52.277Z,83
2023-05-19T03:03:53.453Z,83
2023-05-19T03:08:52.303Z,84
2023-05-19T03:13:49.744Z,84
2023-05-19T03:18:49.769Z,84
2023-05-19T03:23:48.766Z,84
2023-05-19T03:28:48.490Z,84
2023-05-19T03:33:48.343Z,84
2023-05-19T03:38:48.193Z,85
2023-05-19T03:43:49.066Z,85
2023-05-19T03:48:45.438Z,85
2023-05-19T03:53:45.069Z,86
2023-05-19T03:58:44.674Z,86
2023-05-19T04:35:01.223Z,88
2023-05-19T04:59:22.455Z,87
2023-05-19T05:04:22.781Z,87
2023-05-19T05:09:22.357Z,86
2023-05-19T05:14:21.637Z,86
2023-05-19T05:19:21.427Z,85
2023-05-19T05:24:21.354Z,84
2023-05-19T05:29:20.980Z,83
2023-05-19T05:34:22.025Z,83
2023-05-19T05:39:18.559Z,82
2023-05-19T05:44:18.571Z,82
2023-05-19T05:49:17.981Z,81
2023-05-19T05:54:17.840Z,80
2023-05-19T05:59:01.484Z,80
2023-05-19T06:04:01.403Z,78
2023-05-19T06:09:00.703Z,77
2023-05-19T06:14:00.398Z,76
2023-05-19T06:18:59.998Z,76
2023-05-19T06:23:59.642Z,74
2023-05-19T06:28:59.459Z,74
2023-05-19T06:33:59.326Z,74
2023-05-19T06:38:57.280Z,73
2023-05-19T06:43:56.813Z,72
2023-05-19T06:48:57.104Z,71
2023-05-19T06:53:56.852Z,70
2023-05-19T06:58:56.223Z,70
2023-05-19T07:03:56.151Z,69
2023-05-19T07:08:56.408Z,68
2023-05-19T07:13:55.715Z,67
2023-05-19T07:18:57.222Z,65
2023-05-19T07:23:54.020Z,63
2023-05-19T07:28:54.077Z,62
2023-05-19T07:33:54.707Z,61
2023-05-19T07:38:53.674Z,62
2023-05-19T07:43:51.481Z,62
2023-05-19T07:48:51.406Z,60
2023-05-19T07:53:51.105Z,58
2023-05-19T07:58:50.791Z,58
2023-05-19T08:03:50.600Z,58
2023-05-19T08:08:50.567Z,57
2023-05-19T08:13:49.967Z,57
2023-05-19T08:18:50.221Z,57
2023-05-19T08:23:47.717Z,56
2023-05-19T08:28:47.723Z,55
2023-05-19T08:33:48.195Z,54
2023-05-19T08:38:49.250Z,53
2023-05-19T08:43:45.535Z,54
2023-05-19T08:48:45.203Z,52
2023-05-19T08:53:45.583Z,56
2023-05-19T08:58:43.869Z,58
2023-05-19T09:05:15.526Z,53
2023-05-19T09:10:15.518Z,54
2023-05-19T09:15:14.467Z,53
2023-05-19T09:20:14.867Z,52
2023-05-19T09:25:15.139Z,48
2023-05-19T09:30:16.599Z,48
2023-05-19T09:35:13.685Z,46
2023-05-19T09:40:14.334Z,46
2023-05-19T09:45:13.161Z,48
2023-05-19T09:50:13.416Z,47
2023-05-19T09:55:13.340Z,47
2023-05-19T10:00:12.197Z,49
2023-05-19T10:09:19.774Z,48
2023-05-19T10:14:20.613Z,49
2023-05-19T10:24:17.876Z,48
2023-05-19T10:29:17.382Z,46
2023-05-19T10:39:14.796Z,47
2023-05-19T10:44:14.820Z,49
2023-05-19T10:54:14.538Z,49
2023-05-19T10:58:59.600Z,48
2023-05-19T11:03:59.389Z,48
2023-05-19T11:08:59.322Z,48
2023-05-19T11:13:58.995Z,51
2023-05-19T11:18:57.300Z,49
2023-05-19T11:23:57.026Z,50
2023-05-19T11:28:55.812Z,47
2023-05-19T11:33:55.549Z,48
2023-05-19T11:38:55.097Z,48
2023-05-19T11:43:54.588Z,49
2023-05-19T11:48:54.137Z,49
2023-05-19T11:53:53.460Z,52
2023-05-19T11:58:54.439Z,50
2023-05-19T12:03:51.126Z,52
2023-05-19T12:08:50.760Z,51
2023-05-19T12:13:49.764Z,52
2023-05-19T12:18:49.684Z,52
2023-05-19T12:23:47.014Z,53
2023-05-19T12:28:46.698Z,52
2023-05-19T12:33:46.452Z,52
2023-05-19T12:38:45.551Z,53
2023-05-19T12:43:44.628Z,53
2023-05-19T12:48:44.168Z,55
2023-05-19T12:53:44.084Z,54
2023-05-19T12:58:44.364Z,53
2023-05-19T13:05:15.962Z,54
2023-05-19T13:10:15.922Z,53
2023-05-19T13:15:14.625Z,53
2023-05-19T13:20:14.780Z,54
2023-05-19T13:25:14.688Z,55
2023-05-19T13:30:16.202Z,55
2023-05-19T13:35:13.694Z,54
2023-05-19T13:40:13.111Z,55
2023-05-19T13:45:14.916Z,55
2023-05-19T13:50:01.219Z,54
2023-05-19T13:55:01.273Z,53
2023-05-19T13:59:17.261Z,54
2023-05-19T14:04:18.123Z,54
2023-05-19T14:09:15.112Z,54
2023-05-19T14:14:14.892Z,55
2023-05-19T14:19:16.595Z,54
2023-05-19T14:24:13.377Z,55
2023-05-19T14:29:13.694Z,55
2023-05-19T14:34:13.859Z,55
2023-05-19T14:39:00.909Z,54
2023-05-19T14:44:00.639Z,55
2023-05-19T14:49:00.456Z,54
2023-05-19T14:54:01.425Z,55
2023-05-19T14:58:58.017Z,54
2023-05-19T15:03:57.621Z,55
2023-05-19T15:08:56.736Z,55
2023-05-19T15:13:57.123Z,57
2023-05-19T15:18:54.529Z,57
2023-05-19T15:23:54.093Z,55
2023-05-19T15:28:53.188Z,56
2023-05-19T15:33:52.815Z,56
2023-05-19T15:38:52.030Z,57
2023-05-19T15:43:51.863Z,57
2023-05-19T15:48:51.860Z,56
2023-05-19T15:53:51.388Z,57
2023-05-19T15:58:52.540Z,57
2023-05-19T16:03:49.287Z,56
2023-05-19T16:08:48.931Z,56
2023-05-19T16:13:48.879Z,56
2023-05-19T16:18:48.408Z,57
2023-05-19T16:23:47.750Z,57
2023-05-19T16:28:47.810Z,56
2023-05-19T16:33:47.620Z,57
2023-05-19T16:38:49.205Z,57
2023-05-19T16:43:44.731Z,58
2023-05-19T16:48:44.570Z,58
2023-05-19T16:53:43.957Z,57
2023-05-19T16:58:43.824Z,58
2023-05-19T17:59:23.094Z,61
2023-05-19T18:04:26.028Z,61
2023-05-19T18:09:21.808Z,60
2023-05-19T18:14:21.819Z,61
2023-05-19T18:19:21.637Z,61
2023-05-19T18:24:22.485Z,61
2023-05-19T18:29:19.031Z,61
2023-05-19T18:34:19.136Z,61
2023-05-19T18:39:18.459Z,61
2023-05-19T18:44:18.105Z,62
2023-05-19T18:49:15.602Z,62
2023-05-19T18:54:15.350Z,63
2023-05-19T18:59:01.599Z,63
2023-05-19T19:04:01.193Z,65
2023-05-19T19:09:00.251Z,66
2023-05-19T19:13:59.630Z,67
2023-05-19T19:18:59.921Z,67
2023-05-19T19:23:59.601Z,68
2023-05-19T19:28:57.656Z,71
2023-05-19T19:33:56.891Z,71
2023-05-19T19:38:56.430Z,70
2023-05-19T19:43:55.716Z,71
2023-05-19T19:48:55.195Z,71
2023-05-19T19:53:54.527Z,71
2023-05-19T19:58:56.148Z,73
2023-05-19T20:03:54.351Z,74
2023-05-19T20:08:55.214Z,74
2023-05-19T20:13:51.764Z,75
2023-05-19T20:18:51.467Z,75
2023-05-19T20:23:50.876Z,75
2023-05-19T20:28:50.688Z,75
2023-05-19T20:33:47.945Z,74
2023-05-19T20:38:47.582Z,73
2023-05-19T20:43:47.719Z,73
2023-05-19T20:48:47.107Z,76
2023-05-19T20:53:46.573Z,77
2023-05-19T20:58:46.017Z,76
2023-05-19T21:03:46.103Z,77
2023-05-19T21:08:46.422Z,78
2023-05-19T21:13:43.876Z,79
2023-05-19T21:18:43.640Z,80
2023-05-19T21:23:43.768Z,80
2023-05-19T21:28:43.314Z,80
2023-05-19T21:33:42.861Z,80
2023-05-19T21:38:42.299Z,81
2023-05-19T21:43:43.512Z,81
2023-05-19T21:48:42.283Z,79
2023-05-19T21:53:43.215Z,79
2023-05-19T21:58:39.759Z,79
2023-05-19T22:00:26.128Z,79
2023-05-19T22:05:00.201Z,80
2023-05-19T22:09:59.974Z,80
2023-05-19T22:24:57.253Z,80
2023-05-19T22:29:56.928Z,81
2023-05-19T22:34:56.528Z,81
2023-05-19T22:44:55.759Z,82
2023-05-19T22:59:21.019Z,83
2023-05-19T23:04:20.396Z,83
2023-05-19T23:09:19.941Z,83
2023-05-19T23:14:19.232Z,84
2023-05-19T23:19:18.762Z,85
2023-05-19T23:24:19.068Z,85
2023-05-19T23:29:18.396Z,84
2023-05-19T23:34:19.666Z,83
2023-05-19T23:39:15.775Z,83
2023-05-19T23:44:15.759Z,83
2023-05-19T23:49:15.133Z,83
2023-05-19T23:54:14.902Z,82
2023-05-19T23:58:59.349Z,82
